Time;durP1;ratioP1;P1;durP2;ratioP2;P2;SDS_P1;SDS_P2;PMS_P1;PMS_P2;Temp;Humidity;BMP_temperature;BMP_pressure;BME280_temperature;BME280_humidity;BME280_pressure;Samples;Min_cycle;Max_cycle;Signal;HPM_P1;HPM_P2
2023/04/18 00:02:16;;;;;;;14.10;9.63;;;7.30;99.90;;;;;;10281361;28;20196;-80
2023/04/18 00:07:57;;;;;;;14.07;10.47;;;7.20;99.90;;;;;;10280728;28;20243;-79
2023/04/18 00:13:19;;;;;;;15.63;10.20;;;7.20;99.90;;;;;;10292041;28;20203;-79
2023/04/18 00:18:40;;;;;;;13.93;10.03;;;7.20;99.90;;;;;;10279441;28;20299;-80
2023/04/18 00:24:01;;;;;;;12.10;8.93;;;7.20;99.90;;;;;;10277925;29;20207;-80
2023/04/18 00:29:23;;;;;;;13.33;9.73;;;7.20;99.90;;;;;;10296221;28;20224;-79
2023/04/18 00:34:46;;;;;;;13.50;9.93;;;7.30;99.90;;;;;;10335153;28;20205;-81
2023/04/18 00:40:08;;;;;;;14.47;10.63;;;7.30;99.90;;;;;;10298201;28;20203;-81
2023/04/18 00:45:29;;;;;;;18.13;10.10;;;7.30;99.90;;;;;;10278832;29;20193;-80
2023/04/18 00:50:51;;;;;;;14.60;9.93;;;7.30;99.90;;;;;;10277755;29;20558;-79
2023/04/18 00:56:12;;;;;;;15.47;10.03;;;7.30;99.90;;;;;;10277495;28;20237;-80
2023/04/18 01:01:33;;;;;;;16.70;10.97;;;7.30;99.90;;;;;;10278126;29;20200;-81
2023/04/18 01:06:55;;;;;;;15.87;10.63;;;7.20;99.90;;;;;;10277489;28;20504;-79
2023/04/18 01:12:16;;;;;;;16.03;10.23;;;7.20;99.90;;;;;;10278707;28;20291;-79
2023/04/18 01:17:38;;;;;;;21.73;10.97;;;7.20;99.90;;;;;;10277634;28;20223;-79
2023/04/18 01:23:00;;;;;;;14.40;10.73;;;7.20;99.90;;;;;;10262866;29;20243;-80
2023/04/18 01:28:21;;;;;;;17.07;10.90;;;7.30;99.90;;;;;;10286061;28;20522;-82
2023/04/18 01:33:42;;;;;;;15.57;10.57;;;7.30;99.90;;;;;;10298420;28;20444;-82
2023/04/18 01:39:04;;;;;;;17.17;11.00;;;7.30;99.90;;;;;;10287203;28;20204;-80
2023/04/18 01:44:25;;;;;;;14.63;11.67;;;7.30;99.90;;;;;;10276268;28;20255;-79
2023/04/18 01:49:47;;;;;;;16.43;10.83;;;7.30;99.90;;;;;;10278551;28;20560;-81
2023/04/18 01:55:08;;;;;;;13.63;9.53;;;7.30;99.90;;;;;;10275646;28;20272;-78
2023/04/18 02:00:30;;;;;;;19.07;11.57;;;7.30;99.90;;;;;;10277220;28;20232;-80
2023/04/18 02:05:51;;;;;;;14.93;10.70;;;7.30;99.90;;;;;;10276768;28;20271;-79
2023/04/18 02:11:12;;;;;;;17.37;11.20;;;7.30;99.90;;;;;;10277561;28;20231;-82
2023/04/18 02:16:34;;;;;;;17.27;11.47;;;7.40;99.90;;;;;;10276901;28;20204;-78
2023/04/18 02:21:55;;;;;;;16.57;12.03;;;7.40;99.90;;;;;;10288924;28;20219;-78
2023/04/18 02:27:17;;;;;;;16.60;10.90;;;7.40;99.90;;;;;;10288181;28;20200;-81
2023/04/18 02:32:38;;;;;;;15.23;11.70;;;7.30;99.90;;;;;;10274350;29;20579;-78
2023/04/18 02:37:59;;;;;;;18.07;12.90;;;7.40;99.90;;;;;;10276675;28;20228;-80
2023/04/18 02:43:21;;;;;;;17.93;12.13;;;7.30;99.90;;;;;;10243502;29;20212;-83
2023/04/18 02:48:42;;;;;;;21.87;13.80;;;7.30;99.90;;;;;;10274099;29;20234;-83
2023/04/18 02:54:05;;;;;;;18.57;12.70;;;7.30;99.90;;;;;;10272937;29;20215;-82
2023/04/18 02:59:41;;;;;;;16.80;11.10;;;7.30;99.90;;;;;;10287129;28;20227;-81
2023/04/18 03:05:16;;;;;;;18.27;12.30;;;7.30;99.90;;;;;;10273972;28;20289;-80
2023/04/18 03:10:38;;;;;;;22.13;12.80;;;7.40;99.90;;;;;;10275690;28;20232;-82
2023/04/18 03:16:01;;;;;;;16.67;12.03;;;7.40;99.90;;;;;;10285929;28;20230;-79
2023/04/18 03:21:23;;;;;;;17.03;13.57;;;7.40;99.90;;;;;;10286948;28;20219;-80
2023/04/18 03:26:45;;;;;;;19.40;13.73;;;7.40;99.90;;;;;;10286260;28;20223;-79
2023/04/18 03:32:06;;;;;;;16.67;12.93;;;7.30;99.90;;;;;;10292540;28;20586;-80
2023/04/18 03:37:28;;;;;;;18.63;13.23;;;7.30;99.90;;;;;;10272975;28;20196;-79
2023/04/18 03:42:52;;;;;;;18.40;14.10;;;7.40;99.90;;;;;;10310400;28;20208;-80
2023/04/18 03:48:14;;;;;;;21.67;14.10;;;7.40;99.90;;;;;;10273016;29;20212;-80
2023/04/18 03:53:37;;;;;;;17.17;13.47;;;7.30;99.90;;;;;;10272392;28;20216;-82
2023/04/18 03:58:59;;;;;;;16.20;12.07;;;7.30;99.90;;;;;;10271804;28;20245;-77
2023/04/18 04:04:20;;;;;;;18.37;13.13;;;7.50;99.90;;;;;;10272854;28;20215;-80
2023/04/18 04:09:43;;;;;;;22.83;12.30;;;7.50;99.90;;;;;;10278953;28;20231;-78
2023/04/18 04:15:05;;;;;;;21.23;13.80;;;7.50;99.90;;;;;;10293295;28;20208;-82
2023/04/18 04:20:28;;;;;;;21.40;13.50;;;7.50;99.90;;;;;;10295606;28;20206;-78
2023/04/18 04:25:57;;;;;;;23.50;16.87;;;7.40;99.90;;;;;;10292569;28;20273;-78
2023/04/18 04:31:45;;;;;;;25.80;15.90;;;7.50;99.90;;;;;;10314530;28;20225;-78
2023/04/18 04:37:18;;;;;;;24.60;17.43;;;7.50;99.90;;;;;;10321934;28;20203;-79
2023/04/18 04:42:59;;;;;;;28.80;17.27;;;7.30;99.90;;;;;;10278780;28;20226;-77
2023/04/18 04:48:29;;;;;;;23.13;17.20;;;7.20;99.90;;;;;;10264944;29;20239;-78
2023/04/18 04:53:50;;;;;;;25.47;17.63;;;7.20;99.90;;;;;;10291309;28;20203;-77
2023/04/18 04:59:11;;;;;;;30.00;20.83;;;7.10;99.90;;;;;;10280341;28;20549;-78
2023/04/18 05:04:34;;;;;;;25.20;18.13;;;7.20;99.90;;;;;;10277388;28;20378;-77
2023/04/18 05:09:56;;;;;;;23.23;18.30;;;7.20;99.90;;;;;;10277622;28;20703;-79
2023/04/18 05:15:17;;;;;;;27.47;17.33;;;7.20;99.90;;;;;;10278201;28;20279;-79
2023/04/18 05:20:39;;;;;;;22.47;16.60;;;7.20;99.90;;;;;;10277485;28;20505;-81
2023/04/18 05:26:00;;;;;;;21.53;14.70;;;7.30;99.90;;;;;;10277686;28;20203;-79
2023/04/18 05:31:21;;;;;;;21.93;14.87;;;7.40;99.90;;;;;;10308564;28;20526;-80
2023/04/18 05:36:43;;;;;;;20.30;12.60;;;7.50;99.90;;;;;;10309242;28;20204;-82
2023/04/18 05:42:04;;;;;;;21.10;13.97;;;7.70;99.90;;;;;;10268464;29;20199;-79
2023/04/18 05:47:27;;;;;;;17.87;13.40;;;7.90;99.90;;;;;;10277233;28;20197;-78
2023/04/18 05:52:48;;;;;;;19.83;14.93;;;8.10;99.90;;;;;;10275031;28;20216;-83
2023/04/18 05:58:09;;;;;;;19.77;14.97;;;8.20;99.90;;;;;;10276852;28;20228;-80
2023/04/18 06:03:31;;;;;;;23.50;15.70;;;8.30;99.90;;;;;;10261641;29;20237;-81
2023/04/18 06:08:53;;;;;;;26.40;18.53;;;8.50;99.90;;;;;;10273806;29;20232;-80
2023/04/18 06:14:18;;;;;;;21.70;15.07;;;8.70;99.90;;;;;;10288545;28;20363;-82
2023/04/18 06:19:42;;;;;;;25.30;16.37;;;9.20;99.90;;;;;;10290678;28;20199;-78
2023/04/18 06:25:05;;;;;;;21.23;15.43;;;10.00;99.90;;;;;;10287484;28;20202;-81
2023/04/18 06:30:26;;;;;;;24.33;13.37;;;10.70;99.90;;;;;;10298860;28;20233;-81
2023/04/18 06:35:47;;;;;;;18.13;12.60;;;11.40;99.90;;;;;;10313515;28;20482;-81
2023/04/18 06:41:09;;;;;;;37.27;20.33;;;12.10;99.90;;;;;;10271873;29;20369;-78
2023/04/18 06:46:31;;;;;;;34.70;18.10;;;12.80;98.80;;;;;;10276180;28;20200;-81
2023/04/18 06:51:51;;;;;;;19.67;12.30;;;13.40;94.70;;;;;;10273017;29;20261;-81
2023/04/18 06:57:13;;;;;;;15.57;11.73;;;13.90;90.80;;;;;;10273289;28;20234;-79
2023/04/18 07:02:39;;;;;;;13.87;10.70;;;13.70;89.50;;;;;;10273286;28;20251;-82
2023/04/18 07:08:00;;;;;;;17.47;11.33;;;13.10;92.10;;;;;;10258592;29;20248;-81
2023/04/18 07:13:21;;;;;;;22.43;10.43;;;12.40;96.40;;;;;;10274147;28;20203;-81
2023/04/18 07:18:43;;;;;;;16.57;10.70;;;11.90;99.50;;;;;;10257697;28;20271;-80
2023/04/18 07:24:04;;;;;;;13.67;9.07;;;12.00;99.50;;;;;;10321209;28;20212;-80
2023/04/18 07:29:26;;;;;;;10.97;8.37;;;11.80;98.40;;;;;;10314009;28;20258;-80
2023/04/18 07:34:47;;;;;;;11.57;7.80;;;11.70;99.80;;;;;;10300711;28;20299;-81
2023/04/18 07:40:09;;;;;;;12.57;8.80;;;11.80;99.90;;;;;;10293950;28;20209;-81
2023/04/18 07:45:34;;;;;;;9.77;7.80;;;12.00;99.20;;;;;;10303675;28;20196;-79
2023/04/18 07:50:55;;;;;;;16.07;9.30;;;12.00;99.40;;;;;;10304991;28;20250;-81
2023/04/18 07:56:17;;;;;;;10.53;8.03;;;12.10;99.50;;;;;;10305283;28;20551;-80
2023/04/18 08:01:38;;;;;;;12.27;7.43;;;12.50;98.20;;;;;;10314147;28;20252;-80
2023/04/18 08:07:00;;;;;;;17.30;9.27;;;12.80;97.20;;;;;;10312774;28;20239;-78
2023/04/18 08:12:21;;;;;;;15.47;10.33;;;12.80;96.70;;;;;;10312198;28;20275;-80
2023/04/18 08:17:44;;;;;;;10.33;7.20;;;12.90;96.20;;;;;;10319425;28;20296;-80
2023/04/18 08:23:06;;;;;;;8.93;7.47;;;13.10;95.90;;;;;;10303174;28;20202;-80
2023/04/18 08:28:28;;;;;;;18.65;10.23;;;13.20;93.60;;;;;;10291421;28;20308;-84
2023/04/18 08:33:50;;;;;;;10.47;7.60;;;13.60;90.60;;;;;;10321780;28;20217;-81
2023/04/18 08:39:12;;;;;;;13.55;8.88;;;14.00;89.10;;;;;;10301224;28;20297;-82
2023/04/18 08:44:33;;;;;;;10.52;7.00;;;14.50;82.60;;;;;;10313297;28;20496;-85
2023/04/18 08:49:56;;;;;;;13.13;8.68;;;15.60;56.40;;;;;;10295965;28;20263;-88
2023/04/18 08:55:18;;;;;;;8.07;6.50;;;16.10;44.30;;;;;;10271673;28;20411;-82
2023/04/18 09:00:38;;;;;;;13.10;7.22;;;15.50;45.50;;;;;;10287904;28;20208;-81
2023/04/18 09:06:17;;;;;;;9.25;7.25;;;15.00;58.50;;;;;;10278628;28;20207;-81
2023/04/18 09:11:41;;;;;;;8.73;6.50;;;14.90;63.00;;;;;;10296713;28;20246;-83
2023/04/18 09:17:05;;;;;;;33.45;21.58;;;15.00;56.80;;;;;;10258685;28;20314;-81
2023/04/18 09:22:47;;;;;;;9.63;6.47;;;15.60;49.00;;;;;;10302331;28;20263;-81
2023/04/18 09:28:25;;;;;;;10.80;7.53;;;15.60;44.20;;;;;;10309723;28;20250;-83
2023/04/18 09:33:55;;;;;;;7.00;6.25;;;15.60;44.20;;;;;;10328512;28;20233;-78
2023/04/18 09:39:27;;;;;;;9.02;7.00;;;16.00;38.50;;;;;;10311230;28;20504;-80
2023/04/18 09:45:07;;;;;;;9.82;6.78;;;16.30;33.10;;;;;;10304707;28;20516;-83
2023/04/18 09:50:28;;;;;;;8.20;6.70;;;16.20;33.40;;;;;;10302408;28;20228;-84
2023/04/18 09:55:53;;;;;;;9.23;6.80;;;16.00;35.70;;;;;;10311131;28;20291;-82
2023/04/18 10:01:17;;;;;;;21.05;14.90;;;15.80;40.30;;;;;;10320652;28;20214;-87
2023/04/18 10:06:41;;;;;;;16.98;10.98;;;15.40;43.60;;;;;;10302443;28;20197;-83
2023/04/18 10:12:02;;;;;;;16.23;9.85;;;15.00;58.20;;;;;;10323006;28;20247;-82
2023/04/18 10:17:26;;;;;;;8.93;6.88;;;15.30;47.20;;;;;;10311279;28;20282;-84
2023/04/18 10:22:50;;;;;;;31.05;14.88;;;15.50;49.50;;;;;;10310632;28;20259;-81
2023/04/18 10:28:12;;;;;;;13.48;9.60;;;16.00;39.30;;;;;;10321552;28;20273;-82
2023/04/18 10:33:38;;;;;;;11.52;7.45;;;17.20;31.20;;;;;;10279368;28;20213;-81
2023/04/18 10:39:20;;;;;;;7.97;6.53;;;17.70;26.80;;;;;;10295252;28;20215;-83
2023/04/18 10:44:42;;;;;;;9.18;6.40;;;18.40;24.00;;;;;;10305438;28;20206;-86
2023/04/18 10:50:04;;;;;;;8.52;6.50;;;19.20;21.00;;;;;;10312106;28;20435;-85
2023/04/18 10:55:29;;;;;;;9.57;6.35;;;18.90;20.10;;;;;;10306632;28;20247;-83
2023/04/18 11:00:51;;;;;;;12.80;10.00;;;18.80;19.80;;;;;;10322819;28;20214;-83
2023/04/18 11:06:12;;;;;;;13.85;9.05;;;18.00;20.70;;;;;;10286170;28;20203;-83
2023/04/18 11:11:34;;;;;;;15.93;10.48;;;17.40;23.50;;;;;;10294176;28;20237;-82
2023/04/18 11:16:55;;;;;;;19.40;12.00;;;16.90;1.00;;;;;;10302156;28;20206;-83
2023/04/18 11:22:17;;;;;;;21.77;12.73;;;16.80;1.00;;;;;;10302000;28;20213;-83
2023/04/18 11:27:47;;;;;;;13.82;7.93;;;17.20;1.00;;;;;;10311332;28;20197;-84
2023/04/18 11:33:12;;;;;;;10.23;7.55;;;16.80;1.00;;;;;;10308892;28;20272;-84
2023/04/18 11:38:36;;;;;;;8.90;7.68;;;16.30;1.00;;;;;;10284603;28;20443;-84
2023/04/18 11:43:57;;;;;;;7.03;6.10;;;16.60;1.00;;;;;;10304204;28;20288;-82
2023/04/18 11:49:28;;;;;;;8.88;6.18;;;17.60;1.00;;;;;;10307815;28;20238;-84
2023/04/18 11:54:49;;;;;;;10.25;5.90;;;18.10;1.00;;;;;;10310283;28;20201;-81
2023/04/18 12:00:11;;;;;;;9.50;5.95;;;17.80;1.00;;;;;;10289055;28;20321;-82
2023/04/18 12:05:35;;;;;;;8.30;5.85;;;17.80;1.00;;;;;;10310777;28;20240;-81
2023/04/18 12:10:56;;;;;;;9.02;6.60;;;17.30;1.00;;;;;;10293394;28;20225;-84
2023/04/18 12:16:17;;;;;;;9.05;6.97;;;17.50;1.00;;;;;;10314329;28;20297;-80
2023/04/18 12:22:08;;;;;;;7.35;5.97;;;17.30;1.00;;;;;;10318679;28;20210;-83
2023/04/18 12:27:49;;;;;;;8.65;5.68;;;16.90;1.00;;;;;;10292325;28;20208;-82
2023/04/18 12:33:11;;;;;;;15.05;9.75;;;16.30;1.00;;;;;;10261228;28;20555;-83
2023/04/18 12:38:32;;;;;;;10.80;6.80;;;16.30;1.00;;;;;;10286490;28;20285;-83
2023/04/18 12:43:53;;;;;;;10.90;7.10;;;16.10;1.00;;;;;;10274431;28;20206;-83
2023/04/18 12:49:15;;;;;;;6.30;5.28;;;15.90;1.00;;;;;;10260187;28;20222;-83
2023/04/18 12:54:36;;;;;;;7.68;6.50;;;16.00;1.00;;;;;;10311961;28;20224;-83
2023/04/18 12:59:59;;;;;;;6.13;5.35;;;16.00;1.00;;;;;;10299429;28;20209;-83
2023/04/18 13:05:23;;;;;;;15.88;9.38;;;16.50;1.00;;;;;;10294168;28;20236;-80
2023/04/18 13:10:46;;;;;;;8.25;6.43;;;16.70;1.00;;;;;;10325509;28;20411;-82
2023/04/18 13:16:07;;;;;;;6.22;5.55;;;16.70;1.00;;;;;;10334685;28;20214;-83
2023/04/18 13:21:30;;;;;;;8.68;5.90;;;16.80;1.00;;;;;;10293268;28;20503;-81
2023/04/18 13:26:51;;;;;;;8.57;6.93;;;16.90;1.00;;;;;;10295674;28;20200;-83
2023/04/18 13:32:12;;;;;;;10.23;6.57;;;16.30;1.00;;;;;;10337331;28;20241;-82
2023/04/18 13:37:33;;;;;;;15.35;6.72;;;16.40;1.00;;;;;;10301386;28;20619;-86
2023/04/18 13:42:55;;;;;;;8.30;5.85;;;16.30;1.00;;;;;;10271637;29;20195;-85
2023/04/18 13:48:19;;;;;;;11.45;6.72;;;16.10;1.00;;;;;;10293492;28;20210;-87
2023/04/18 13:53:41;;;;;;;10.13;7.57;;;15.70;1.00;;;;;;10300044;28;20232;-80
2023/04/18 13:59:02;;;;;;;9.25;7.35;;;15.60;1.00;;;;;;10311613;28;20438;-81
2023/04/18 14:04:24;;;;;;;8.10;7.18;;;15.40;1.00;;;;;;10307119;28;20212;-81
2023/04/18 14:09:46;;;;;;;11.25;6.53;;;15.10;1.00;;;;;;10303639;28;20224;-84
2023/04/18 14:15:59;;;;;;;11.40;8.07;;;15.00;1.00;;;;;;10288664;28;20232;-83
2023/04/18 14:21:37;;;;;;;15.60;7.80;;;15.00;74.60;;;;;;10308404;28;20365;-82
2023/04/18 14:27:00;;;;;;;9.70;7.25;;;14.60;86.50;;;;;;10302333;28;20210;-83
2023/04/18 14:32:22;;;;;;;9.52;7.18;;;14.40;88.30;;;;;;10295984;28;20404;-83
2023/04/18 14:37:43;;;;;;;7.78;6.68;;;14.20;88.60;;;;;;10306824;28;20216;-82
2023/04/18 14:43:05;;;;;;;11.52;7.50;;;14.00;92.10;;;;;;10295625;28;20235;-83
2023/04/18 14:48:26;;;;;;;11.23;7.75;;;13.90;93.40;;;;;;10292128;28;20214;-84
2023/04/18 14:53:47;;;;;;;10.30;7.83;;;13.80;95.10;;;;;;10297902;28;20226;-82
2023/04/18 14:59:12;;;;;;;15.87;8.10;;;13.40;95.70;;;;;;10321273;28;20613;-79
2023/04/18 15:04:34;;;;;;;13.10;9.23;;;13.20;97.60;;;;;;10287245;28;20237;-83
2023/04/18 15:09:55;;;;;;;12.47;7.87;;;13.10;99.10;;;;;;10299280;28;20224;-82
2023/04/18 15:15:18;;;;;;;17.10;10.40;;;13.00;99.60;;;;;;10329020;28;20272;-83
2023/04/18 15:20:39;;;;;;;13.53;9.73;;;13.10;99.50;;;;;;10310607;28;20208;-83
2023/04/18 15:26:01;;;;;;;28.57;11.67;;;13.00;99.20;;;;;;10314765;28;20476;-82
2023/04/18 15:31:22;;;;;;;21.83;11.87;;;12.80;99.90;;;;;;10274279;28;20249;-85
2023/04/18 15:36:45;;;;;;;19.27;12.23;;;12.70;99.90;;;;;;10299090;28;20200;-82
2023/04/18 15:42:06;;;;;;;16.80;10.73;;;12.60;99.90;;;;;;10326854;28;20240;-82
2023/04/18 15:47:27;;;;;;;17.07;11.60;;;12.70;99.90;;;;;;10312001;28;20375;-83
2023/04/18 15:52:49;;;;;;;16.40;11.00;;;12.80;99.90;;;;;;10299033;28;20299;-83
2023/04/18 15:58:10;;;;;;;14.73;11.10;;;12.70;99.90;;;;;;10298235;28;20257;-84
2023/04/18 16:03:32;;;;;;;17.43;12.20;;;12.60;99.90;;;;;;10331963;28;20194;-83
2023/04/18 16:08:53;;;;;;;13.57;9.83;;;12.50;99.90;;;;;;10308756;28;20221;-83
2023/04/18 16:14:14;;;;;;;12.03;9.20;;;12.30;99.90;;;;;;10279961;29;20560;-83
2023/04/18 16:19:37;;;;;;;13.53;9.33;;;12.00;99.90;;;;;;10269093;28;20306;-82
2023/04/18 16:24:58;;;;;;;13.80;9.53;;;12.10;99.90;;;;;;10289075;28;20217;-84
2023/04/18 16:30:20;;;;;;;14.13;9.10;;;12.10;99.90;;;;;;10346255;28;20246;-83
2023/04/18 16:35:41;;;;;;;9.80;8.13;;;11.90;99.90;;;;;;10332804;28;20213;-83
2023/04/18 16:41:03;;;;;;;15.97;9.53;;;12.00;99.90;;;;;;10329998;28;20224;-83
2023/04/18 16:46:24;;;;;;;13.63;9.17;;;12.00;99.90;;;;;;10359481;28;20196;-83
2023/04/18 16:51:46;;;;;;;11.93;8.93;;;12.00;99.90;;;;;;10345394;28;20223;-82
2023/04/18 16:57:07;;;;;;;11.07;7.20;;;11.70;99.90;;;;;;10347833;28;20263;-83
2023/04/18 17:02:28;;;;;;;12.00;7.90;;;11.50;99.90;;;;;;10318940;28;20204;-83
2023/04/18 17:07:51;;;;;;;15.37;9.10;;;11.50;99.90;;;;;;10318408;28;20264;-83
2023/04/18 17:13:12;;;;;;;11.17;7.40;;;11.30;99.90;;;;;;10312899;28;20250;-83
2023/04/18 17:18:34;;;;;;;13.60;8.50;;;11.30;99.90;;;;;;10318576;28;20212;-84
2023/04/18 17:23:56;;;;;;;8.77;5.77;;;11.00;95.20;;;;;;10321034;28;20280;-85
2023/04/18 17:29:17;;;;;;;17.17;7.30;;;11.00;71.70;;;;;;10320086;28;20622;-82
2023/04/18 17:34:38;;;;;;;8.40;5.07;;;10.80;37.40;;;;;;10310575;28;20216;-83
2023/04/18 17:40:02;;;;;;;7.80;5.00;;;10.80;26.10;;;;;;10358150;28;20239;-82
2023/04/18 17:45:23;;;;;;;11.17;6.47;;;10.70;24.90;;;;;;10352738;28;20201;-83
2023/04/18 17:50:45;;;;;;;24.17;12.90;;;10.60;30.50;;;;;;10319817;28;20244;-83
2023/04/18 17:56:06;;;;;;;28.30;15.57;;;10.50;66.20;;;;;;10306735;28;20311;-82
2023/04/18 18:01:29;;;;;;;18.63;10.43;;;10.40;79.80;;;;;;10291472;28;20222;-83
2023/04/18 18:06:57;;;;;;;15.77;8.07;;;10.30;1.00;;;;;;10316667;28;20250;-83
2023/04/18 18:12:18;;;;;;;18.07;9.97;;;10.20;1.00;;;;;;10318327;28;20254;-83
2023/04/18 18:17:39;;;;;;;12.23;6.00;;;10.00;99.90;;;;;;10317144;28;20224;-83
2023/04/18 18:23:01;;;;;;;12.90;6.37;;;9.80;1.00;;;;;;10316389;28;20208;-83
2023/04/18 18:28:23;;;;;;;18.23;7.30;;;9.60;1.00;;;;;;10311838;28;20213;-83
2023/04/18 18:33:44;;;;;;;12.33;6.70;;;9.40;1.00;;;;;;10330493;28;20551;-83
2023/04/18 18:39:06;;;;;;;15.83;5.77;;;;;;;;;;10327868;28;20212;-83
2023/04/18 18:44:27;;;;;;;11.57;5.67;;;8.90;99.90;;;;;;10314384;28;20208;-83
2023/04/18 18:49:49;;;;;;;15.20;5.33;;;8.90;87.70;;;;;;10329390;28;20233;-82
2023/04/18 18:55:10;;;;;;;12.80;7.50;;;8.60;90.50;;;;;;10322536;28;20266;-84
2023/04/18 19:00:31;;;;;;;15.87;9.53;;;8.60;91.90;;;;;;10314192;28;20208;-83
2023/04/18 19:05:55;;;;;;;16.40;7.80;;;8.40;93.30;;;;;;10313565;28;20262;-83
2023/04/18 19:11:17;;;;;;;14.17;7.57;;;8.20;91.20;;;;;;10316451;28;20226;-83
2023/04/18 19:16:38;;;;;;;19.87;9.57;;;8.00;91.50;;;;;;10312810;28;20255;-83
2023/04/18 19:22:00;;;;;;;11.57;6.60;;;7.90;92.80;;;;;;10313223;28;20215;-82
2023/04/18 19:27:22;;;;;;;9.87;5.57;;;7.80;91.10;;;;;;10328858;28;20200;-82
2023/04/18 19:32:43;;;;;;;12.83;5.33;;;7.70;90.30;;;;;;10336550;28;20440;-82
2023/04/18 19:38:04;;;;;;;7.00;4.97;;;7.70;90.20;;;;;;10319607;28;20207;-83
2023/04/18 19:43:26;;;;;;;8.93;5.97;;;7.60;90.30;;;;;;10324079;28;20227;-82
2023/04/18 19:48:47;;;;;;;10.47;5.87;;;7.60;86.60;;;;;;10323292;28;20207;-85
2023/04/18 19:54:09;;;;;;;8.93;4.07;;;7.40;88.00;;;;;;10346620;28;20305;-81
2023/04/18 19:59:30;;;;;;;9.77;5.27;;;7.20;84.90;;;;;;10320276;28;20278;-82
2023/04/18 20:04:52;;;;;;;17.73;6.53;;;7.20;86.60;;;;;;10320419;28;20439;-83
2023/04/18 20:10:13;;;;;;;13.17;6.23;;;7.10;90.10;;;;;;10270602;28;20240;-83
2023/04/18 20:15:35;;;;;;;13.30;7.50;;;7.10;89.60;;;;;;10280449;28;20211;-82
2023/04/18 20:20:57;;;;;;;17.47;7.17;;;7.20;89.80;;;;;;10293018;28;20237;-82
2023/04/18 20:26:18;;;;;;;8.33;5.10;;;7.10;91.20;;;;;;10305654;28;20268;-83
2023/04/18 20:31:41;;;;;;;10.20;5.80;;;;;;;;;;10357156;28;20253;-83
2023/04/18 20:37:02;;;;;;;9.63;5.13;;;6.80;92.50;;;;;;10310839;28;20229;-83
2023/04/18 20:42:23;;;;;;;10.90;4.57;;;6.70;93.20;;;;;;10321414;28;20206;-84
2023/04/18 20:47:44;;;;;;;13.63;5.17;;;6.60;94.30;;;;;;10332440;28;20193;-85
2023/04/18 20:53:06;;;;;;;12.00;6.40;;;;;;;;;;10325572;28;20229;-84
2023/04/18 20:58:27;;;;;;;14.07;5.80;;;6.40;94.80;;;;;;10318523;28;20644;-80
2023/04/18 21:03:48;;;;;;;9.90;5.30;;;6.30;95.60;;;;;;10321284;28;20234;-82
2023/04/18 21:09:10;;;;;;;11.03;4.80;;;6.20;96.30;;;;;;10332616;28;20248;-82
2023/04/18 21:14:31;;;;;;;12.40;5.37;;;6.20;96.20;;;;;;10317524;28;20471;-82
2023/04/18 21:19:54;;;;;;;10.37;4.90;;;6.10;97.20;;;;;;10317869;28;20286;-81
2023/04/18 21:25:17;;;;;;;8.37;4.63;;;6.00;97.70;;;;;;10333117;28;20385;-83
2023/04/18 21:30:39;;;;;;;15.60;6.73;;;;;;;;;;10343763;28;20253;-80
2023/04/18 21:36:00;;;;;;;12.67;5.87;;;;;;;;;;10325618;28;20218;-81
2023/04/18 21:41:22;;;;;;;12.37;4.90;;;;;;;;;;10316870;28;20194;-81
2023/04/18 21:46:44;;;;;;;15.27;6.00;;;;;;;;;;10296439;28;20253;-81
2023/04/18 21:52:06;;;;;;;8.10;4.47;;;5.80;99.90;;;;;;10307284;28;20248;-84
2023/04/18 21:57:27;;;;;;;7.93;4.67;;;5.80;99.90;;;;;;10298692;28;20277;-82
2023/04/18 22:02:49;;;;;;;18.57;9.43;;;5.60;99.90;;;;;;10315957;28;20209;-82
2023/04/18 22:08:11;;;;;;;10.43;5.03;;;5.70;99.90;;;;;;10274876;28;20202;-82
2023/04/18 22:13:32;;;;;;;9.27;4.60;;;;;;;;;;10317631;28;20240;-81
2023/04/18 22:18:54;;;;;;;8.50;4.17;;;5.40;99.90;;;;;;10329638;28;20443;-82
2023/04/18 22:24:17;;;;;;;8.23;4.40;;;5.30;99.90;;;;;;10314375;28;20286;-82
2023/04/18 22:29:38;;;;;;;10.13;4.03;;;5.20;99.90;;;;;;10347362;28;20492;-82
2023/04/18 22:34:59;;;;;;;7.07;3.80;;;5.30;99.90;;;;;;10320960;28;20217;-82
2023/04/18 22:40:21;;;;;;;6.10;3.70;;;5.20;99.90;;;;;;10269774;29;20485;-82
2023/04/18 22:45:44;;;;;;;9.23;3.93;;;5.30;99.90;;;;;;10301188;28;20206;-82
2023/04/18 22:51:05;;;;;;;8.43;4.53;;;5.20;99.90;;;;;;10301113;28;20233;-82
2023/04/18 22:56:26;;;;;;;7.10;4.50;;;5.20;99.90;;;;;;10287275;28;20317;-81
2023/04/18 23:01:48;;;;;;;11.57;4.43;;;5.10;99.90;;;;;;10273943;28;20282;-82
2023/04/18 23:07:09;;;;;;;9.30;4.17;;;5.20;99.90;;;;;;10264521;29;20203;-81
2023/04/18 23:12:30;;;;;;;9.90;3.97;;;5.00;99.90;;;;;;10302409;28;20229;-82
2023/04/18 23:17:52;;;;;;;7.87;3.97;;;4.80;99.90;;;;;;10313359;28;20209;-83
2023/04/18 23:23:13;;;;;;;11.87;4.27;;;4.90;99.90;;;;;;10295422;28;20257;-82
2023/04/18 23:28:35;;;;;;;7.13;3.17;;;4.80;99.90;;;;;;10323542;28;20196;-83
2023/04/18 23:33:56;;;;;;;7.80;3.63;;;4.80;99.90;;;;;;10326200;28;20237;-84
2023/04/18 23:39:17;;;;;;;6.57;2.90;;;4.90;99.90;;;;;;10276180;28;20258;-83
2023/04/18 23:44:39;;;;;;;8.20;3.50;;;4.80;99.90;;;;;;10279457;28;20213;-84
2023/04/18 23:50:00;;;;;;;12.43;3.67;;;;;;;;;;10275895;28;20225;-83
2023/04/18 23:55:22;;;;;;;7.03;3.20;;;4.80;99.90;;;;;;10303747;28;20252;-84
